createdAt,value
2018-12-17T00:00:45.449Z,17.80
2018-12-17T00:03:15.588Z,18.50
2018-12-17T00:05:45.537Z,17.97
2018-12-17T00:08:16.673Z,19.47
2018-12-17T00:10:46.654Z,19.13
2018-12-17T00:13:16.685Z,18.63
2018-12-17T00:15:47.120Z,16.30
2018-12-17T00:18:18.028Z,17.80
2018-12-17T00:20:49.863Z,16.60
2018-12-17T00:23:20.407Z,17.07
2018-12-17T00:25:50.412Z,17.40
2018-12-17T00:28:21.160Z,17.50
2018-12-17T00:30:52.537Z,18.20
2018-12-17T00:33:22.476Z,18.60
2018-12-17T00:35:52.569Z,16.30
2018-12-17T00:38:30.905Z,16.57
2018-12-17T00:41:02.337Z,17.70
2018-12-17T00:43:32.718Z,16.20
2018-12-17T00:46:02.813Z,16.60
2018-12-17T00:48:33.336Z,17.80
2018-12-17T00:51:03.116Z,16.80
2018-12-17T00:53:33.387Z,15.73
2018-12-17T00:56:03.827Z,17.73
2018-12-17T00:58:34.014Z,15.20
2018-12-17T01:01:05.416Z,16.47
2018-12-17T01:03:37.417Z,17.60
2018-12-17T01:06:07.660Z,16.60
2018-12-17T01:08:38.673Z,17.47
2018-12-17T01:11:09.949Z,16.90
2018-12-17T01:13:40.394Z,17.00
2018-12-17T01:16:10.835Z,15.23
2018-12-17T01:18:41.459Z,15.90
2018-12-17T01:21:12.136Z,17.17
2018-12-17T01:23:42.422Z,16.23
2018-12-17T01:26:12.389Z,18.33
2018-12-17T01:28:42.753Z,16.07
2018-12-17T01:31:13.773Z,16.60
2018-12-17T01:33:43.857Z,16.30
2018-12-17T01:36:14.353Z,17.30
2018-12-17T01:38:44.251Z,17.70
2018-12-17T01:41:14.249Z,16.00
2018-12-17T01:43:44.025Z,16.67
2018-12-17T01:46:14.487Z,16.43
2018-12-17T01:48:44.700Z,16.90
2018-12-17T01:51:14.809Z,15.90
2018-12-17T01:53:45.070Z,17.57
2018-12-17T01:56:15.150Z,16.80
2018-12-17T01:58:45.545Z,16.90
2018-12-17T02:01:15.466Z,16.80
2018-12-17T02:03:45.372Z,15.83
2018-12-17T02:06:15.575Z,16.40
2018-12-17T02:08:45.704Z,17.57
2018-12-17T02:11:15.871Z,16.20
2018-12-17T02:13:45.943Z,15.97
2018-12-17T02:16:16.410Z,16.73
2018-12-17T02:18:47.025Z,15.57
2018-12-17T02:21:16.882Z,14.73
2018-12-17T02:23:47.339Z,15.40
2018-12-17T02:26:17.711Z,15.83
2018-12-17T02:28:47.435Z,16.50
2018-12-17T02:31:17.561Z,16.53
2018-12-17T02:33:47.740Z,15.97
2018-12-17T02:36:17.672Z,16.73
2018-12-17T02:38:48.196Z,14.50
2018-12-17T02:41:18.419Z,16.67
2018-12-17T02:43:48.482Z,16.53
2018-12-17T02:46:18.862Z,15.87
2018-12-17T02:48:48.779Z,15.97
2018-12-17T02:51:18.687Z,16.10
2018-12-17T02:53:48.605Z,16.30
2018-12-17T02:56:18.447Z,16.37
2018-12-17T02:58:48.606Z,16.40
2018-12-17T03:01:18.655Z,16.83
2018-12-17T03:03:48.603Z,17.27
2018-12-17T03:06:18.908Z,16.70
2018-12-17T03:08:49.364Z,18.00
2018-12-17T03:11:19.147Z,16.00
2018-12-17T03:13:49.080Z,16.77
2018-12-17T03:16:19.152Z,15.40
2018-12-17T03:18:49.018Z,17.07
2018-12-17T03:21:18.992Z,16.93
2018-12-17T03:23:49.692Z,16.77
2018-12-17T03:26:19.540Z,15.90
2018-12-17T03:28:51.869Z,16.80
2018-12-17T03:31:21.865Z,16.73
2018-12-17T03:33:51.749Z,16.20
2018-12-17T03:36:21.554Z,16.50
2018-12-17T03:38:51.852Z,15.00
2018-12-17T03:41:21.805Z,14.10
2018-12-17T03:43:51.660Z,15.70
2018-12-17T03:46:21.842Z,15.67
2018-12-17T03:48:52.495Z,14.83
2018-12-17T03:51:22.638Z,15.33
2018-12-17T03:53:53.090Z,15.80
2018-12-17T03:56:22.819Z,14.37
2018-12-17T03:58:59.211Z,14.87
2018-12-17T04:01:26.121Z,15.87
2018-12-17T04:03:55.986Z,15.77
2018-12-17T04:06:26.090Z,13.63
2018-12-17T04:08:56.412Z,15.87
2018-12-17T04:11:26.447Z,14.60
2018-12-17T04:13:56.156Z,13.83
2018-12-17T04:16:26.733Z,14.77
2018-12-17T04:18:56.797Z,14.50
2018-12-17T04:21:26.721Z,15.10
2018-12-17T04:23:56.680Z,14.43
2018-12-17T04:26:26.954Z,13.57
2018-12-17T04:28:56.829Z,15.57
2018-12-17T04:31:28.385Z,14.00
2018-12-17T04:33:58.163Z,13.90
2018-12-17T04:36:28.537Z,13.73
2018-12-17T04:38:58.546Z,14.00
2018-12-17T04:41:28.891Z,12.73
2018-12-17T04:43:58.716Z,14.50
2018-12-17T04:46:28.728Z,14.83
2018-12-17T04:48:59.224Z,13.73
2018-12-17T04:51:29.349Z,14.70
2018-12-17T04:53:59.465Z,12.93
2018-12-17T04:56:29.365Z,12.37
2018-12-17T04:58:59.135Z,14.10
2018-12-17T05:01:29.023Z,12.87
2018-12-17T05:03:59.394Z,12.73
2018-12-17T05:06:29.504Z,12.97
2018-12-17T05:08:59.191Z,13.43
2018-12-17T05:11:30.652Z,13.97
2018-12-17T05:14:00.775Z,13.67
2018-12-17T05:16:31.245Z,13.70
2018-12-17T05:19:01.964Z,11.63
2018-12-17T05:21:32.263Z,12.40
2018-12-17T05:24:02.274Z,12.10
2018-12-17T05:26:32.386Z,11.77
2018-12-17T05:29:02.588Z,12.83
2018-12-17T05:31:32.435Z,12.10
2018-12-17T05:34:03.053Z,11.60
2018-12-17T05:36:33.473Z,12.83
2018-12-17T05:39:04.908Z,12.30
2018-12-17T05:41:34.681Z,12.23
2018-12-17T05:44:04.891Z,11.07
2018-12-17T05:46:35.826Z,11.30
2018-12-17T05:49:05.958Z,11.97
2018-12-17T05:51:36.797Z,11.57
2018-12-17T05:54:07.041Z,12.17
2018-12-17T05:56:36.980Z,11.43
2018-12-17T05:59:07.529Z,11.00
2018-12-17T06:01:37.967Z,10.60
2018-12-17T06:04:09.144Z,11.43
2018-12-17T06:06:39.427Z,10.50
2018-12-17T06:09:12.724Z,11.43
2018-12-17T06:11:43.928Z,10.63
2018-12-17T06:14:14.204Z,11.17
2018-12-17T06:16:45.232Z,10.63
2018-12-17T06:19:18.914Z,10.50
2018-12-17T06:21:48.729Z,11.90
2018-12-17T06:24:18.860Z,10.80
2018-12-17T06:26:49.663Z,10.30
2018-12-17T06:29:20.901Z,11.70
2018-12-17T06:31:51.520Z,10.60
2018-12-17T06:34:22.478Z,11.37
2018-12-17T06:36:54.938Z,10.83
2018-12-17T06:39:25.351Z,8.63
2018-12-17T06:41:56.215Z,9.17
2018-12-17T06:44:26.292Z,8.83
2018-12-17T06:46:58.062Z,10.13
2018-12-17T06:49:28.384Z,9.20
2018-12-17T06:51:58.981Z,10.20
2018-12-17T06:54:29.233Z,9.47
2018-12-17T06:56:59.392Z,9.63
2018-12-17T06:59:29.325Z,9.70
2018-12-17T07:02:10.807Z,8.70
2018-12-17T07:04:41.123Z,9.17
2018-12-17T07:07:11.910Z,10.77
2018-12-17T07:09:42.304Z,9.97
2018-12-17T07:12:12.976Z,9.60
2018-12-17T07:14:44.024Z,10.53
2018-12-17T07:17:14.304Z,10.80
2018-12-17T07:19:44.296Z,10.53
2018-12-17T07:22:14.343Z,10.40
2018-12-17T07:24:44.067Z,9.97
2018-12-17T07:27:15.116Z,9.60
2018-12-17T07:29:49.795Z,9.77
2018-12-17T07:32:18.733Z,8.67
2018-12-17T07:34:50.240Z,9.50
2018-12-17T07:37:21.363Z,9.97
2018-12-17T07:39:51.712Z,8.80
2018-12-17T07:42:23.291Z,8.77
2018-12-17T07:44:53.479Z,9.67
2018-12-17T07:47:25.835Z,9.70
2018-12-17T07:49:56.443Z,9.00
2018-12-17T07:52:27.419Z,9.57
2018-12-17T07:54:58.942Z,8.40
2018-12-17T07:57:32.110Z,8.80
2018-12-17T08:00:02.095Z,9.20
2018-12-17T08:02:32.599Z,8.97
2018-12-17T08:05:03.604Z,8.67
2018-12-17T08:07:35.114Z,8.60
2018-12-17T08:10:07.696Z,9.73
2018-12-17T08:12:39.068Z,8.80
2018-12-17T08:15:10.232Z,7.40
2018-12-17T08:17:40.304Z,7.80
2018-12-17T08:20:12.373Z,7.73
2018-12-17T08:22:44.932Z,7.43
2018-12-17T08:25:16.954Z,7.93
2018-12-17T08:27:48.525Z,7.10
2018-12-17T08:30:18.693Z,8.10
2018-12-17T08:32:49.666Z,7.83
2018-12-17T08:35:19.820Z,8.17
2018-12-17T08:37:49.657Z,7.40
2018-12-17T08:40:22.425Z,7.20
2018-12-17T08:42:54.010Z,7.60
2018-12-17T08:45:24.711Z,7.63
2018-12-17T08:47:54.344Z,8.03
2018-12-17T08:50:25.456Z,7.47
2018-12-17T08:52:56.505Z,7.53
2018-12-17T08:55:27.230Z,8.33
2018-12-17T08:57:57.317Z,7.70
2018-12-17T09:00:27.442Z,6.93
2018-12-17T09:02:59.269Z,8.63
2018-12-17T09:05:30.742Z,8.40
2018-12-17T09:08:00.648Z,9.13
2018-12-17T09:10:31.880Z,8.67
2018-12-17T09:13:02.233Z,8.23
2018-12-17T09:15:32.671Z,8.83
2018-12-17T09:18:02.693Z,8.40
2018-12-17T09:20:32.792Z,8.60
2018-12-17T09:23:05.155Z,8.33
2018-12-17T09:25:36.652Z,8.80
2018-12-17T09:28:07.251Z,7.90
2018-12-17T09:30:41.260Z,9.00
2018-12-17T09:33:11.565Z,8.80
2018-12-17T09:35:43.876Z,9.03
2018-12-17T09:38:14.954Z,8.23
2018-12-17T09:40:45.597Z,8.90
2018-12-17T09:43:16.350Z,9.93
2018-12-17T09:45:47.514Z,9.50
2018-12-17T09:48:17.699Z,9.63
2018-12-17T09:50:49.307Z,9.73
2018-12-17T09:53:20.333Z,8.80
2018-12-17T09:55:50.572Z,9.20
2018-12-17T09:58:20.343Z,9.67
2018-12-17T10:00:51.976Z,9.20
2018-12-17T10:03:22.980Z,9.20
2018-12-17T10:05:53.795Z,9.47
2018-12-17T10:08:26.242Z,10.60
2018-12-17T10:10:56.704Z,8.97
2018-12-17T10:13:26.988Z,10.40
2018-12-17T10:15:58.848Z,10.17
2018-12-17T10:18:36.647Z,9.67
2018-12-17T10:21:04.056Z,10.43
2018-12-17T10:23:34.036Z,9.80
2018-12-17T10:26:05.357Z,8.70
2018-12-17T10:28:35.485Z,9.47
2018-12-17T10:31:05.736Z,9.27
2018-12-17T10:33:36.471Z,9.60
2018-12-17T10:36:07.560Z,9.40
2018-12-17T10:38:37.971Z,8.80
2018-12-17T10:41:09.138Z,9.23
2018-12-17T10:43:42.305Z,8.90
2018-12-17T10:46:12.352Z,9.20
2018-12-17T10:48:43.368Z,8.97
2018-12-17T10:51:13.470Z,9.00
2018-12-17T10:53:44.772Z,8.90
2018-12-17T10:56:17.249Z,9.70
2018-12-17T10:58:47.477Z,8.63
2018-12-17T11:01:23.205Z,8.43
2018-12-17T11:03:59.195Z,8.87
2018-12-17T11:06:29.192Z,8.60
2018-12-17T11:09:02.303Z,7.93
2018-12-17T11:11:34.729Z,8.60
2018-12-17T11:14:06.100Z,8.33
2018-12-17T11:16:38.212Z,8.97
2018-12-17T11:19:08.276Z,9.00
2018-12-17T11:21:39.234Z,8.17
2018-12-17T11:24:09.682Z,9.20
2018-12-17T11:26:39.611Z,8.53
2018-12-17T11:29:10.552Z,9.57
2018-12-17T11:31:41.769Z,9.17
2018-12-17T11:34:11.849Z,8.93
2018-12-17T11:36:42.426Z,8.83
2018-12-17T11:39:12.815Z,8.53
2018-12-17T11:41:42.925Z,8.83
2018-12-17T11:44:13.463Z,8.80
2018-12-17T11:46:44.531Z,9.77
2018-12-17T11:49:15.982Z,8.53
2018-12-17T11:51:46.896Z,8.97
2018-12-17T11:54:18.335Z,9.57
2018-12-17T11:57:00.045Z,10.40
2018-12-17T11:59:30.950Z,8.60
2018-12-17T12:02:16.904Z,9.50
2018-12-17T12:04:48.740Z,10.13
2018-12-17T12:07:20.197Z,9.97
2018-12-17T12:09:51.368Z,9.23
2018-12-17T12:12:22.495Z,10.63
2018-12-17T12:14:54.476Z,10.13
2018-12-17T12:17:27.170Z,10.70
2018-12-17T12:19:57.325Z,9.77
2018-12-17T12:22:29.796Z,9.80
2018-12-17T12:25:01.328Z,10.77
2018-12-17T12:27:32.949Z,9.97
2018-12-17T12:30:04.256Z,11.23
2018-12-17T12:32:34.608Z,9.43
2018-12-17T12:35:06.416Z,10.47
2018-12-17T12:37:37.775Z,11.10
2018-12-17T12:40:10.773Z,10.10
2018-12-17T12:42:40.956Z,10.90
2018-12-17T12:45:13.081Z,11.60
2018-12-17T12:47:43.306Z,10.50
2018-12-17T12:50:14.716Z,10.73
2018-12-17T12:52:45.900Z,11.90
2018-12-17T12:55:17.897Z,11.47
2018-12-17T12:57:49.933Z,11.53
2018-12-17T13:00:20.361Z,11.53
2018-12-17T13:02:51.054Z,12.70
2018-12-17T13:05:22.222Z,13.57
2018-12-17T13:07:54.049Z,12.93
2018-12-17T13:10:25.151Z,13.60
2018-12-17T13:12:55.067Z,13.53
2018-12-17T13:15:26.650Z,14.03
2018-12-17T13:17:56.948Z,13.37
2018-12-17T13:20:27.940Z,13.73
2018-12-17T13:22:59.371Z,13.20
2018-12-17T13:25:39.590Z,11.97
2018-12-17T13:28:10.192Z,13.97
2018-12-17T13:30:43.368Z,13.50
2018-12-17T13:33:15.693Z,12.70
2018-12-17T13:35:49.424Z,11.53
2018-12-17T13:38:20.094Z,14.10
2018-12-17T13:40:50.978Z,12.30
2018-12-17T13:43:24.967Z,15.13
2018-12-17T13:45:57.228Z,14.27
2018-12-17T13:48:27.555Z,13.90
2018-12-17T13:51:01.780Z,14.40
2018-12-17T13:53:34.924Z,14.27
2018-12-17T13:56:05.117Z,13.87
2018-12-17T13:58:36.922Z,14.13
2018-12-17T14:01:07.762Z,14.90
2018-12-17T14:03:39.620Z,15.90
2018-12-17T14:06:10.766Z,14.77
2018-12-17T14:08:40.997Z,15.40
2018-12-17T14:11:12.138Z,15.13
2018-12-17T14:13:42.142Z,16.00
2018-12-17T14:16:15.350Z,14.83
2018-12-17T14:18:54.996Z,16.07
2018-12-17T14:21:31.909Z,15.70
2018-12-17T14:24:02.539Z,16.23
2018-12-17T14:26:33.441Z,16.90
2018-12-17T14:29:06.086Z,15.73
2018-12-17T14:31:36.561Z,18.20
2018-12-17T14:34:06.849Z,17.57
2018-12-17T14:36:37.288Z,17.77
2018-12-17T14:39:11.860Z,18.07
2018-12-17T14:41:43.675Z,17.27
2018-12-17T14:44:20.649Z,19.37
2018-12-17T14:47:00.962Z,17.70
2018-12-17T14:49:31.320Z,17.63
2018-12-17T14:52:02.467Z,16.70
2018-12-17T14:54:32.945Z,16.70
2018-12-17T14:57:04.033Z,18.03
2018-12-17T14:59:35.301Z,18.50
2018-12-17T15:02:13.692Z,18.53
2018-12-17T15:04:45.524Z,18.63
2018-12-17T15:07:17.763Z,18.10
2018-12-17T15:09:50.898Z,19.20
2018-12-17T15:12:21.184Z,20.30
2018-12-17T15:14:51.448Z,18.90
2018-12-17T15:17:21.674Z,19.77
2018-12-17T15:19:54.260Z,19.07
2018-12-17T15:22:25.267Z,19.20
2018-12-17T15:24:57.294Z,19.40
2018-12-17T15:27:27.527Z,18.57
2018-12-17T15:30:01.275Z,21.00
2018-12-17T15:32:32.636Z,20.47
2018-12-17T15:35:03.845Z,19.77
2018-12-17T15:37:35.930Z,20.30
2018-12-17T15:40:09.200Z,19.07
2018-12-17T15:42:42.496Z,19.77
2018-12-17T15:45:13.069Z,19.10
2018-12-17T15:47:43.125Z,17.40
2018-12-17T15:50:13.052Z,18.30
2018-12-17T15:52:44.229Z,18.50
2018-12-17T15:55:15.946Z,19.23
2018-12-17T15:57:47.033Z,18.20
2018-12-17T16:00:17.513Z,18.87
2018-12-17T16:02:48.664Z,17.20
2018-12-17T16:05:19.497Z,17.13
2018-12-17T16:07:52.052Z,17.37
2018-12-17T16:10:22.557Z,15.53
2018-12-17T16:12:53.808Z,16.23
2018-12-17T16:15:24.789Z,17.97
2018-12-17T16:17:55.472Z,17.50
2018-12-17T16:20:25.549Z,17.43
2018-12-17T16:22:56.880Z,16.23
2018-12-17T16:25:28.691Z,16.33
2018-12-17T16:28:00.313Z,16.57
2018-12-17T16:30:31.169Z,16.37
2018-12-17T16:33:01.558Z,16.60
2018-12-17T16:35:31.719Z,16.20
2018-12-17T16:38:03.593Z,16.60
2018-12-17T16:40:37.037Z,17.27
2018-12-17T16:43:07.841Z,16.27
2018-12-17T16:45:38.020Z,16.27
2018-12-17T16:48:08.156Z,15.17
2018-12-17T16:50:40.512Z,15.47
2018-12-17T16:53:11.519Z,16.43
2018-12-17T16:55:43.303Z,14.57
2018-12-17T16:58:15.653Z,14.93
2018-12-17T17:00:51.037Z,14.20
2018-12-17T17:03:22.205Z,14.63
2018-12-17T17:05:53.524Z,14.43
2018-12-17T17:08:26.708Z,14.00
2018-12-17T17:10:58.936Z,12.20
2018-12-17T17:13:31.227Z,13.57
2018-12-17T17:16:03.044Z,13.57
2018-12-17T17:18:34.272Z,14.13
2018-12-17T17:21:06.188Z,13.93
2018-12-17T17:23:36.957Z,14.60
2018-12-17T17:26:11.286Z,14.20
2018-12-17T17:28:41.520Z,13.87
2018-12-17T17:31:14.274Z,14.80
2018-12-17T17:33:45.204Z,14.43
2018-12-17T17:36:15.887Z,13.30
2018-12-17T17:38:47.116Z,13.83
2018-12-17T17:41:17.117Z,13.37
2018-12-17T17:43:48.294Z,13.00
2018-12-17T17:46:19.289Z,14.67
2018-12-17T17:48:50.479Z,13.30
2018-12-17T17:51:20.746Z,14.27
2018-12-17T17:53:51.304Z,14.23
2018-12-17T17:56:22.580Z,13.00
2018-12-17T17:58:52.667Z,15.30
2018-12-17T18:01:24.031Z,14.23
2018-12-17T18:03:54.734Z,14.20
2018-12-17T18:06:26.651Z,18.00
2018-12-17T18:08:58.041Z,16.80
2018-12-17T18:11:29.641Z,27.80
2018-12-17T18:14:00.610Z,17.10
2018-12-17T18:16:33.350Z,15.50
2018-12-17T18:19:05.236Z,15.40
2018-12-17T18:21:35.692Z,17.53
2018-12-17T18:24:06.880Z,16.80
2018-12-17T18:26:38.031Z,16.70
2018-12-17T18:29:08.277Z,17.13
2018-12-17T18:31:40.927Z,17.73
2018-12-17T18:34:11.653Z,17.40
2018-12-17T18:36:42.685Z,18.37
2018-12-17T18:39:16.373Z,18.30
2018-12-17T18:41:49.742Z,19.10
2018-12-17T18:44:21.432Z,19.57
2018-12-17T18:46:51.620Z,19.10
2018-12-17T18:49:22.060Z,19.73
2018-12-17T18:51:52.025Z,18.40
2018-12-17T18:54:23.935Z,20.67
2018-12-17T18:56:55.991Z,19.27
2018-12-17T18:59:27.248Z,19.10
2018-12-17T19:02:05.658Z,18.60
2018-12-17T19:04:35.937Z,20.03
2018-12-17T19:07:06.551Z,21.40
2018-12-17T19:09:38.896Z,19.03
2018-12-17T19:12:17.693Z,19.03
2018-12-17T19:14:56.989Z,18.77
2018-12-17T19:17:29.215Z,19.87
2018-12-17T19:20:00.434Z,19.37
2018-12-17T19:22:30.436Z,19.90
2018-12-17T19:25:01.364Z,20.07
2018-12-17T19:27:32.532Z,19.87
2018-12-17T19:30:03.596Z,19.57
2018-12-17T19:32:40.239Z,22.00
2018-12-17T19:35:07.264Z,21.77
2018-12-17T19:37:38.720Z,21.83
2018-12-17T19:40:10.560Z,20.50
2018-12-17T19:42:42.964Z,21.20
2018-12-17T19:45:14.262Z,20.50
2018-12-17T19:47:48.944Z,21.97
2018-12-17T19:50:20.185Z,20.40
2018-12-17T19:52:53.661Z,20.57
2018-12-17T19:55:25.848Z,20.87
2018-12-17T19:57:56.786Z,21.23
2018-12-17T20:00:28.552Z,20.37
2018-12-17T20:03:00.346Z,20.20
2018-12-17T20:05:33.511Z,20.57
2018-12-17T20:08:05.417Z,20.27
2018-12-17T20:10:35.424Z,19.73
2018-12-17T20:13:06.598Z,19.27
2018-12-17T20:15:39.246Z,20.10
2018-12-17T20:18:12.096Z,18.67
2018-12-17T20:20:43.320Z,18.37
2018-12-17T20:23:14.403Z,17.87
2018-12-17T20:25:45.401Z,18.53
2018-12-17T20:28:15.816Z,18.23
2018-12-17T20:30:46.349Z,18.73
2018-12-17T20:33:18.561Z,18.20
2018-12-17T20:35:48.667Z,18.60
2018-12-17T20:38:19.132Z,18.80
2018-12-17T20:40:50.067Z,18.77
2018-12-17T20:43:21.220Z,17.90
2018-12-17T20:45:52.678Z,17.87
2018-12-17T20:48:22.675Z,17.00
2018-12-17T20:50:54.587Z,18.20
2018-12-17T20:53:25.988Z,18.70
2018-12-17T20:55:56.155Z,17.80
2018-12-17T20:58:29.113Z,18.20
2018-12-17T21:00:59.913Z,18.00
2018-12-17T21:03:31.646Z,18.10
2018-12-17T21:06:03.224Z,17.27
2018-12-17T21:08:35.998Z,18.27
2018-12-17T21:11:08.088Z,17.23
2018-12-17T21:13:40.080Z,17.37
2018-12-17T21:16:12.054Z,17.97
2018-12-17T21:18:41.844Z,16.47
2018-12-17T21:21:12.052Z,18.57
2018-12-17T21:23:42.160Z,17.80
2018-12-17T21:26:13.243Z,19.37
2018-12-17T21:28:43.589Z,16.57
2018-12-17T21:31:13.699Z,17.53
2018-12-17T21:33:44.742Z,18.30
2018-12-17T21:36:17.059Z,16.23
2018-12-17T21:38:47.422Z,16.83
2018-12-17T21:41:17.587Z,18.30
2018-12-17T21:43:47.863Z,18.00
2018-12-17T21:46:19.047Z,17.30
2018-12-17T21:48:50.662Z,19.67
2018-12-17T21:51:21.829Z,20.00
2018-12-17T21:53:53.630Z,17.70
2018-12-17T21:56:24.448Z,18.73
2018-12-17T21:58:55.260Z,17.93
2018-12-17T22:01:25.892Z,18.20
2018-12-17T22:03:57.795Z,19.80
2018-12-17T22:06:27.846Z,18.07
2018-12-17T22:09:01.356Z,19.63
2018-12-17T22:11:31.933Z,20.37
2018-12-17T22:14:02.888Z,20.17
2018-12-17T22:16:34.292Z,19.27
2018-12-17T22:19:05.124Z,19.80
2018-12-17T22:21:35.732Z,19.83
2018-12-17T22:24:05.739Z,21.77
2018-12-17T22:26:36.118Z,21.13
2018-12-17T22:29:07.544Z,21.80
2018-12-17T22:31:39.384Z,21.13
2018-12-17T22:34:09.504Z,21.23
2018-12-17T22:36:39.929Z,22.53
2018-12-17T22:39:10.845Z,23.30
2018-12-17T22:41:41.710Z,22.13
2018-12-17T22:44:12.432Z,21.67
2018-12-17T22:46:42.514Z,22.60
2018-12-17T22:49:13.535Z,22.60
2018-12-17T22:51:46.417Z,22.63
2018-12-17T22:54:16.776Z,21.33
2018-12-17T22:56:47.049Z,22.50
2018-12-17T22:59:16.920Z,22.53
2018-12-17T23:01:51.311Z,22.20
2018-12-17T23:04:23.213Z,23.47
2018-12-17T23:06:53.550Z,23.80
2018-12-17T23:09:22.981Z,22.37
2018-12-17T23:12:09.444Z,22.60
2018-12-17T23:14:51.220Z,23.20
2018-12-17T23:17:32.539Z,23.10
2018-12-17T23:20:03.618Z,21.97
2018-12-17T23:22:36.379Z,20.10
2018-12-17T23:25:07.064Z,21.47
2018-12-17T23:27:37.336Z,21.43
2018-12-17T23:30:10.564Z,20.10
2018-12-17T23:32:40.523Z,23.17
2018-12-17T23:35:12.070Z,19.50
2018-12-17T23:37:42.805Z,20.40
2018-12-17T23:40:13.301Z,21.57
2018-12-17T23:42:44.292Z,20.70
2018-12-17T23:45:19.631Z,20.10
2018-12-17T23:47:50.864Z,21.63
2018-12-17T23:50:22.040Z,21.97
2018-12-17T23:52:52.158Z,21.40
2018-12-17T23:55:21.934Z,22.10
2018-12-17T23:57:53.759Z,21.83
